Time;durP1;ratioP1;P1;durP2;ratioP2;P2;SDS_P1;SDS_P2;PMS_P1;PMS_P2;Temp;Humidity;BMP_temperature;BMP_pressure;BME280_temperature;BME280_humidity;BME280_pressure;Samples;Min_cycle;Max_cycle;Signal;HPM_P1;HPM_P2
2024/04/30 00:01:04;;;;;;;9.55;5.00;;;;;;;13.65;81.36;100244.38;6216355;22;19987;-96
2024/04/30 00:03:30;;;;;;;6.07;4.30;;;;;;;13.68;81.07;100251.97;6218367;22;19996;-92
2024/04/30 00:05:56;;;;;;;9.85;5.90;;;;;;;13.64;83.17;100255.50;6216418;22;20000;-93
2024/04/30 00:08:21;;;;;;;8.23;5.03;;;;;;;13.60;83.37;100262.50;6216781;22;20016;-94
2024/04/30 00:10:50;;;;;;;6.70;5.53;;;;;;;13.59;83.52;100248.16;6215728;22;20000;-94
2024/04/30 00:13:15;;;;;;;6.75;4.75;;;;;;;13.75;82.59;100259.81;6218360;22;19999;-92
2024/04/30 00:15:41;;;;;;;6.72;4.07;;;;;;;13.67;80.59;100258.44;6213146;22;20000;-92
2024/04/30 00:18:07;;;;;;;5.47;3.95;;;;;;;13.66;80.55;100246.00;6213799;22;20024;-93
2024/04/30 00:20:35;;;;;;;5.95;3.90;;;;;;;13.68;80.86;100262.00;6214925;22;19996;-93
2024/04/30 00:23:00;;;;;;;6.47;3.88;;;;;;;13.53;80.70;100254.66;6213298;22;20007;-93
2024/04/30 00:25:26;;;;;;;6.22;3.78;;;;;;;13.66;80.61;100266.84;6213331;22;20003;-92
2024/04/30 00:27:54;;;;;;;7.63;3.90;;;;;;;13.45;81.07;100257.88;6213646;22;19996;-93
2024/04/30 00:30:20;;;;;;;6.65;4.10;;;;;;;13.39;82.20;100265.16;6215194;22;20007;-93
2024/04/30 00:32:46;;;;;;;7.00;3.78;;;;;;;13.33;82.29;100261.59;6213441;22;19992;-93
2024/04/30 00:35:11;;;;;;;6.05;3.60;;;;;;;13.33;81.94;100245.38;6213300;22;19996;-92
2024/04/30 00:37:37;;;;;;;6.28;3.92;;;;;;;13.47;82.00;100266.53;6213402;22;19984;-93
2024/04/30 00:40:05;;;;;;;5.93;4.13;;;;;;;13.39;82.97;100267.84;6213566;22;19998;-93
2024/04/30 00:42:33;;;;;;;6.70;4.20;;;;;;;13.13;83.12;100246.06;6253378;22;20003;-93
2024/04/30 00:45:02;;;;;;;8.25;4.65;;;;;;;13.24;83.53;100252.34;6215251;22;20353;-92
2024/04/30 00:47:28;;;;;;;5.60;3.70;;;;;;;13.25;83.80;100245.03;6214908;22;20019;-93
2024/04/30 00:49:53;;;;;;;9.93;4.28;;;;;;;13.48;82.98;100266.25;6214584;22;19996;-94
2024/04/30 00:52:19;;;;;;;6.80;4.22;;;;;;;13.19;83.58;100233.38;6215354;22;20007;-93
2024/04/30 00:54:45;;;;;;;12.15;4.60;;;;;;;13.31;83.06;100252.13;6214703;22;20048;-94
2024/04/30 00:57:11;;;;;;;4.90;4.20;;;;;;;13.29;83.41;100233.44;6214123;22;20012;-93
2024/04/30 00:59:36;;;;;;;7.95;4.30;;;;;;;13.38;83.23;100241.88;6214611;22;20073;-93
2024/04/30 01:02:02;;;;;;;7.45;4.03;;;;;;;13.58;82.91;100270.09;6213283;22;20003;-94
2024/04/30 01:04:31;;;;;;;6.43;3.85;;;;;;;13.41;82.93;100244.06;6213956;22;20007;-93
2024/04/30 01:06:56;;;;;;;6.75;4.22;;;;;;;13.39;82.40;100235.38;6213732;22;20007;-93
2024/04/30 01:09:22;;;;;;;10.07;4.30;;;;;;;13.47;82.49;100242.19;6214257;22;20008;-93
2024/04/30 01:11:53;;;;;;;6.82;4.05;;;;;;;13.61;82.66;100262.22;6214834;22;20362;-93
2024/04/30 01:14:19;;;;;;;7.93;4.35;;;;;;;13.56;82.11;100256.81;6217850;22;20044;-91
2024/04/30 01:16:44;;;;;;;6.72;3.95;;;;;;;13.58;82.59;100243.81;6216524;22;20007;-91
2024/04/30 01:19:10;;;;;;;6.97;3.75;;;;;;;13.56;82.21;100243.28;6255271;22;20072;-94
2024/04/30 01:21:36;;;;;;;6.82;4.22;;;;;;;13.63;81.58;100249.25;6216455;22;20000;-93
2024/04/30 01:24:01;;;;;;;7.32;3.85;;;;;;;13.54;81.97;100221.88;6215304;22;20000;-92
2024/04/30 01:26:27;;;;;;;4.80;3.30;;;;;;;13.62;80.28;100225.16;6215953;22;20392;-92
2024/04/30 01:28:57;;;;;;;4.97;3.45;;;;;;;13.63;80.04;100233.00;6216157;22;20083;-92
2024/04/30 01:31:23;;;;;;;6.22;3.85;;;;;;;13.58;80.70;100224.09;6295134;22;19996;-93
2024/04/30 01:33:51;;;;;;;4.45;3.28;;;;;;;13.63;81.85;100213.25;6253247;22;20074;-93
2024/04/30 01:36:17;;;;;;;7.75;4.15;;;;;;;13.74;81.71;100239.28;6215004;22;19996;-93
2024/04/30 01:38:46;;;;;;;4.93;4.15;;;;;;;13.69;80.47;100231.94;6214184;22;20097;-93
2024/04/30 01:41:11;;;;;;;9.98;4.80;;;;;;;13.73;83.79;100245.75;6216267;22;20000;-93
2024/04/30 01:43:37;;;;;;;7.45;4.60;;;;;;;13.68;83.29;100240.34;6252481;22;19999;-94
2024/04/30 01:46:04;;;;;;;7.15;4.43;;;;;;;13.66;83.21;100231.69;6214032;22;20445;-92
2024/04/30 01:48:30;;;;;;;8.85;5.07;;;;;;;13.66;82.22;100216.25;6213410;22;20064;-93
2024/04/30 01:50:56;;;;;;;7.03;4.20;;;;;;;13.82;82.35;100230.63;6213037;22;20007;-92
2024/04/30 01:53:21;;;;;;;11.52;4.05;;;;;;;13.71;81.47;100213.53;6214170;22;20064;-92
2024/04/30 01:55:47;;;;;;;7.72;4.28;;;;;;;13.72;79.82;100208.94;6213994;22;20003;-93
2024/04/30 01:58:13;;;;;;;8.20;4.20;;;;;;;13.72;80.49;100214.38;6214316;22;19995;-92
2024/04/30 02:00:38;;;;;;;4.47;3.72;;;;;;;13.86;80.55;100222.75;6214138;22;20007;-92
2024/04/30 02:03:04;;;;;;;5.47;4.20;;;;;;;13.79;81.04;100208.69;6213759;22;20290;-93
2024/04/30 02:05:30;;;;;;;7.07;4.22;;;;;;;13.70;81.70;100205.69;6214659;22;19996;-92
2024/04/30 02:07:55;;;;;;;6.60;3.83;;;;;;;13.89;81.65;100225.75;6214573;22;20024;-92
2024/04/30 02:10:21;;;;;;;7.53;4.25;;;;;;;13.74;81.77;100207.59;6214803;22;20000;-93
2024/04/30 02:12:47;;;;;;;7.53;4.25;;;;;;;13.72;81.96;100198.94;6213216;22;20308;-93
2024/04/30 02:15:12;;;;;;;9.63;4.60;;;;;;;13.73;82.12;100197.84;6215038;22;20008;-94
2024/04/30 02:17:39;;;;;;;7.63;4.18;;;;;;;13.77;81.69;100195.41;6213208;22;20056;-93
2024/04/30 02:20:05;;;;;;;9.07;4.30;;;;;;;13.86;81.80;100206.50;6213879;22;20000;-95
2024/04/30 02:22:31;;;;;;;6.30;4.18;;;;;;;13.75;81.98;100192.16;6215095;22;19996;-95
2024/04/30 02:24:56;;;;;;;6.60;4.47;;;;;;;13.75;81.78;100192.97;6214641;22;19996;-96
2024/04/30 02:27:22;;;;;;;4.82;3.75;;;;;;;13.83;82.26;100193.53;6214114;22;19996;-96
2024/04/30 02:29:48;;;;;;;5.63;3.78;;;;;;;13.64;82.31;100180.50;6214377;22;20004;-95
2024/04/30 02:34:57;;;;;;;7.53;4.07;;;;;;;13.78;82.56;100213.28;6266556;22;20010;-96
2024/04/30 02:37:23;;;;;;;7.68;4.43;;;;;;;13.59;83.18;100193.22;6214879;22;20003;-96
2024/04/30 02:39:52;;;;;;;5.65;3.78;;;;;;;13.55;82.89;100176.72;6252847;22;20072;-95
2024/04/30 02:42:18;;;;;;;6.68;3.85;;;;;;;13.53;82.55;100192.41;6253989;22;19996;-95
2024/04/30 02:44:43;;;;;;;7.05;4.47;;;;;;;13.51;82.71;100178.34;6215091;22;20041;-96
2024/04/30 02:47:12;;;;;;;7.93;3.78;;;;;;;13.55;82.39;100192.97;6214429;22;20013;-95
2024/04/30 02:49:38;;;;;;;8.02;4.07;;;;;;;13.56;82.86;100191.88;6217850;22;20392;-96
2024/04/30 02:52:04;;;;;;;6.80;4.45;;;;;;;13.68;83.12;100207.88;6214825;22;20007;-95
2024/04/30 02:54:32;;;;;;;6.70;4.35;;;;;;;13.44;83.83;100178.59;6215674;22;20049;-95
2024/04/30 02:57:01;;;;;;;6.65;4.20;;;;;;;13.48;83.65;100176.16;6216227;22;19992;-96
2024/04/30 02:59:26;;;;;;;8.25;4.60;;;;;;;13.58;84.02;100194.31;6217651;22;20008;-94
2024/04/30 03:01:52;;;;;;;6.70;4.05;;;;;;;13.58;83.26;100186.19;6214073;22;19999;-96
2024/04/30 03:04:18;;;;;;;6.95;4.43;;;;;;;13.52;83.83;100171.84;6213465;22;20399;-94
2024/04/30 03:06:46;;;;;;;6.65;4.53;;;;;;;13.63;84.08;100178.88;6214088;22;19996;-96
2024/04/30 03:09:11;;;;;;;8.25;4.13;;;;;;;13.60;83.25;100181.34;6213487;22;19996;-95
2024/04/30 03:11:43;;;;;;;6.22;4.50;;;;;;;13.67;83.48;100190.78;6213178;22;20006;-96
2024/04/30 03:14:09;;;;;;;;;;;;;;;13.72;84.33;100214.38;6215907;22;20098;-96
2024/04/30 03:16:38;;;;;;;5.40;4.47;;;;;;;13.50;85.19;100179.41;6253051;22;19931;-95
2024/04/30 03:19:06;;;;;;;7.22;4.45;;;;;;;13.67;84.61;100207.03;6216704;22;19996;-95
2024/04/30 03:21:31;;;;;;;8.93;4.45;;;;;;;13.66;84.68;100208.13;6214981;22;20467;-96
2024/04/30 03:23:57;;;;;;;6.63;4.05;;;;;;;13.56;84.97;100189.16;6214989;22;20008;-95
2024/04/30 03:26:23;;;;;;;6.03;4.00;;;;;;;13.57;84.08;100188.06;6214164;22;20080;-96
2024/04/30 03:28:51;;;;;;;6.38;3.40;;;;;;;13.80;83.91;100219.25;6215043;22;20007;-95
2024/04/30 03:31:19;;;;;;;7.38;3.45;;;;;;;13.64;83.65;100202.16;6216776;22;20024;-95
2024/04/30 03:33:45;;;;;;;5.28;3.25;;;;;;;13.63;83.37;100203.22;6215413;22;20071;-94
2024/04/30 03:36:11;;;;;;;6.53;3.60;;;;;;;13.52;83.25;100191.59;6213744;22;20007;-95
2024/04/30 03:38:39;;;;;;;3.80;2.83;;;;;;;13.71;82.98;100212.72;6214089;22;20007;-94
2024/04/30 03:41:14;;;;;;;4.75;3.08;;;;;;;13.63;82.35;100195.13;6214546;22;20000;-96
2024/04/30 03:43:39;;;;;;;3.92;2.92;;;;;;;13.59;82.93;100196.72;6213414;22;20032;-96
2024/04/30 03:46:14;;;;;;;4.65;3.03;;;;;;;13.61;83.13;100201.88;6213190;22;19996;-95
2024/04/30 03:48:44;;;;;;;4.85;3.20;;;;;;;13.63;83.59;100208.66;6216158;22;20008;-94
2024/04/30 03:51:09;;;;;;;4.03;3.00;;;;;;;13.66;83.07;100210.03;6216791;22;19996;-95
2024/04/30 03:53:35;;;;;;;6.07;3.40;;;;;;;13.48;83.32;100201.31;6214667;22;19996;-94
2024/04/30 03:56:01;;;;;;;4.38;3.10;;;;;;;13.62;84.31;100233.28;6214066;22;19996;-95
2024/04/30 03:58:26;;;;;;;4.38;3.10;;;;;;;13.37;85.56;100207.78;6214622;22;19995;-95
2024/04/30 04:00:52;;;;;;;4.95;3.28;;;;;;;13.40;85.84;100206.44;6214011;22;20000;-93
2024/04/30 04:03:18;;;;;;;4.68;3.25;;;;;;;13.42;84.97;100202.38;6213819;22;19996;-96
2024/04/30 04:09:09;;;;;;;6.30;4.03;;;;;;;13.41;86.02;100203.47;6334785;22;20463;-96
2024/04/30 04:17:05;;;;;;;4.32;3.30;;;;;;;13.57;84.66;100233.25;6267998;22;20007;-96
2024/04/30 04:19:37;;;;;;;5.47;2.50;;;;;;;13.44;84.72;100212.94;6217646;22;19991;-96
2024/04/30 04:22:19;;;;;;;;;;;;;;;;;;;;;
2024/04/30 04:25:27;;;;;;;;;;;;;;;13.72;82.95;100247.66;6274829;22;20010;-95
2024/04/30 04:31:36;;;;;;;5.18;3.17;;;;;;;13.52;83.38;100232.16;5950184;23;20009;-96
2024/04/30 04:34:48;;;;;;;5.10;3.08;;;;;;;13.39;83.12;100211.03;6264615;22;20003;-96
2024/04/30 04:37:16;;;;;;;3.88;3.00;;;;;;;13.59;84.07;100252.75;6296405;22;20004;-96
2024/04/30 04:39:44;;;;;;;5.28;3.20;;;;;;;13.39;84.47;100224.56;6258861;22;20422;-96
2024/04/30 04:42:33;;;;;;;4.25;2.97;;;;;;;13.45;84.24;100225.41;6217585;22;20064;-96
2024/04/30 04:45:03;;;;;;;4.13;3.22;;;;;;;13.62;83.95;100242.22;6222429;22;19996;-96
2024/04/30 04:47:31;;;;;;;4.38;3.10;;;;;;;13.46;83.06;100217.00;6218862;22;20025;-96
2024/04/30 04:50:00;;;;;;;4.22;3.00;;;;;;;13.53;84.06;100239.22;6219304;22;19996;-96
2024/04/30 04:52:32;;;;;;;5.20;2.80;;;;;;;13.61;83.39;100239.78;6223068;22;20000;-96
2024/04/30 04:55:19;;;;;;;5.90;3.40;;;;;;;13.76;83.48;100256.06;6229209;22;20003;-96
2024/04/30 04:57:47;;;;;;;5.00;2.90;;;;;;;13.58;83.62;100245.72;6225305;22;20002;-92
2024/04/30 05:00:41;;;;;;;4.10;2.72;;;;;;;13.45;83.13;100215.38;6228281;22;19992;-96
2024/04/30 05:06:24;;;;;;;5.65;3.40;;;;;;;13.65;84.09;100247.06;6237701;22;20339;-96
2024/04/30 05:08:50;;;;;;;5.38;2.80;;;;;;;13.48;82.90;100227.56;6219286;22;20020;-96
2024/04/30 05:11:23;;;;;;;3.53;3.22;;;;;;;13.44;83.36;100226.47;6263395;22;20006;-95
2024/04/30 05:14:00;;;;;;;4.70;3.38;;;;;;;13.69;82.88;100269.81;6221001;22;19991;-96
2024/04/30 05:16:50;;;;;;;5.18;4.03;;;;;;;13.53;83.33;100244.63;6227039;22;20007;-96
2024/04/30 05:19:42;;;;;;;5.25;3.20;;;;;;;13.56;84.08;100264.13;6302318;22;20434;-96
2024/04/30 05:22:40;;;;;;;;;;;;;;;;;;;;;
2024/04/30 05:25:16;;;;;;;;;;;;;;;;;;;;;
2024/04/30 05:28:24;;;;;;;;;;;;;;;;;;;;;
2024/04/30 05:31:03;;;;;;;5.82;4.13;;;;;;;13.33;84.56;100256.19;6279440;22;20003;-96
2024/04/30 05:33:37;;;;;;;7.05;3.97;;;;;;;13.19;84.94;100236.09;6311985;22;19999;-96
2024/04/30 05:36:05;;;;;;;5.80;4.25;;;;;;;13.29;84.22;100232.66;6346602;22;19995;-96
2024/04/30 05:38:33;;;;;;;7.68;5.97;;;;;;;13.43;85.05;100250.00;6308128;22;19998;-95
2024/04/30 05:40:59;;;;;;;6.53;4.18;;;;;;;13.48;84.38;100247.31;6275496;22;19991;-94
2024/04/30 05:43:26;;;;;;;6.35;3.58;;;;;;;13.53;82.89;100254.66;6266229;22;19992;-94
2024/04/30 05:45:52;;;;;;;6.03;3.80;;;;;;;13.49;83.12;100246.25;6263357;22;20027;-93
2024/04/30 05:48:17;;;;;;;6.38;3.65;;;;;;;13.46;82.76;100249.47;6265849;22;20011;-93
2024/04/30 05:50:49;;;;;;;5.22;3.58;;;;;;;13.44;83.56;100253.53;6305779;22;20049;-95
2024/04/30 05:53:18;;;;;;;;;;;;;;;13.70;83.03;100286.91;6271573;22;19995;-95
2024/04/30 05:55:51;;;;;;;3.90;2.72;;;;;;;13.34;83.16;100249.72;6344248;22;19923;-93
2024/04/30 05:58:20;;;;;;;4.50;2.90;;;;;;;13.42;83.71;100261.91;6249052;22;20003;-93
2024/04/30 06:00:54;;;;;;;5.55;3.10;;;;;;;13.38;83.46;100258.09;6207965;22;20102;-96
2024/04/30 06:03:54;;;;;;;4.18;3.05;;;;;;;13.32;83.78;100249.16;6212543;22;20007;-96
2024/04/30 06:07:09;;;;;;;;;;;;;;;;;;;;;
2024/04/30 06:15:40;;;;;;;7.18;5.47;;;;;;;13.43;83.55;100278.97;6085425;23;20024;-95
2024/04/30 06:18:33;;;;;;;4.90;3.42;;;;;;;13.22;84.12;100243.69;6111461;23;20227;-96
2024/04/30 06:21:20;;;;;;;10.20;3.42;;;;;;;13.36;83.84;100264.84;6220838;22;19993;-96
2024/04/30 06:24:09;;;;;;;4.07;2.88;;;;;;;13.38;82.71;100257.28;6180928;22;19997;-96
2024/04/30 06:27:07;;;;;;;3.25;2.60;;;;;;;13.64;82.70;100294.19;6028400;23;20007;-96
2024/04/30 06:43:04;;;;;;;;;;;;;;;;;;;;;
2024/04/30 06:49:06;;;;;;;3.25;2.35;;;;;;;13.77;83.40;100314.50;6131561;23;19998;-94
2024/04/30 06:51:52;;;;;;;5.50;3.40;;;;;;;13.78;82.16;100318.84;6108440;23;19995;-94
2024/04/30 06:54:26;;;;;;;28.40;22.38;;;;;;;13.67;83.14;100309.88;6188483;22;20000;-95
2024/04/30 06:57:32;;;;;;;29.90;20.25;;;;;;;13.80;81.73;100310.44;6263216;22;19992;-96
2024/04/30 07:25:42;;;;;;;2.63;1.88;;;;;;;14.17;80.40;100318.38;6332487;22;20028;-94
2024/04/30 07:28:16;;;;;;;15.75;6.75;;;;;;;14.30;80.02;100319.78;6259027;22;20006;-96
2024/04/30 07:30:45;;;;;;;4.10;2.08;;;;;;;14.17;80.27;100320.28;6294454;22;20007;-96
2024/04/30 07:33:53;;;;;;;4.90;2.75;;;;;;;14.30;80.37;100298.09;6256767;22;19996;-96
2024/04/30 08:19:45;;;;;;;2.88;1.80;;;;;;;14.35;80.06;100354.97;6391652;22;19998;-95
2024/04/30 08:22:57;;;;;;;2.25;1.50;;;;;;;14.10;79.93;100329.47;6308390;22;19999;-95
2024/04/30 08:26:25;;;;;;;;;;;;;;;;;;;;;
2024/04/30 08:51:55;;;;;;;4.55;3.28;;;;;;;14.34;78.31;100348.75;6061266;23;20043;-96
2024/04/30 08:54:45;;;;;;;;;;;;;;;;;;;;;
2024/04/30 09:15:49;;;;;;;2.55;1.80;;;;;;;14.00;79.07;100347.59;6246554;23;20317;-95
2024/04/30 09:29:13;;;;;;;;;;;;;;;;;;;;;
2024/04/30 09:32:33;;;;;;;2.60;1.67;;;;;;;14.35;77.58;100360.41;6322552;22;19999;-95
2024/04/30 09:35:29;;;;;;;2.83;1.98;;;;;;;14.21;78.43;100346.56;6359760;22;20054;-96
2024/04/30 09:38:23;;;;;;;4.45;2.20;;;;;;;14.40;78.10;100346.03;6167722;23;19997;-96
2024/04/30 09:41:02;;;;;;;;;;;;;;;;;;;;;
2024/04/30 09:55:51;;;;;;;4.05;2.40;;;;;;;14.84;75.55;100342.84;6129674;23;20135;-96
2024/04/30 09:58:38;;;;;;;;;;;;;;;;;;;;;
2024/04/30 10:01:14;;;;;;;3.88;2.63;;;;;;;14.68;76.20;100331.19;6323863;22;19995;-96
2024/04/30 10:03:41;;;;;;;2.80;2.50;;;;;;;14.90;75.67;100364.25;6270130;22;20067;-95
2024/04/30 10:30:51;;;;;;;3.40;2.25;;;;;;;15.46;74.09;100325.31;6154796;23;20045;-96
2024/04/30 10:33:37;;;;;;;3.42;2.33;;;;;;;15.46;74.00;100328.03;6132537;22;20027;-95
2024/04/30 10:36:56;;;;;;;3.47;2.50;;;;;;;15.42;73.77;100320.69;6217453;22;19988;-96
2024/04/30 10:53:41;;;;;;;3.20;2.65;;;;;;;15.26;76.31;100375.03;6051501;23;20084;-94
2024/04/30 10:56:13;;;;;;;3.72;2.20;;;;;;;15.04;77.18;100350.09;5936387;24;19997;-96
2024/04/30 10:59:03;;;;;;;2.88;2.20;;;;;;;15.04;76.07;100348.19;6037790;23;20005;-94
2024/04/30 11:01:41;;;;;;;3.05;2.70;;;;;;;14.99;76.73;100340.09;6112585;23;20014;-95
2024/04/30 11:25:23;;;;;;;5.22;1.75;;;;;;;15.47;75.97;100339.69;6293258;22;19991;-95
2024/04/30 11:28:00;;;;;;;3.55;1.60;;;;;;;15.54;75.21;100330.16;6210167;22;19992;-96
2024/04/30 11:31:02;;;;;;;1.73;1.48;;;;;;;15.83;75.77;100347.69;6167230;23;20054;-94
2024/04/30 11:33:53;;;;;;;2.28;1.23;;;;;;;15.70;73.02;100320.03;6191562;22;20008;-96
2024/04/30 11:36:37;;;;;;;;;;;;;;;;;;;;;
2024/04/30 11:42:50;;;;;;;5.53;3.63;;;;;;;15.49;74.85;100348.38;6065933;23;20135;-96
2024/04/30 11:45:39;;;;;;;2.22;1.60;;;;;;;15.39;75.73;100346.50;5946852;24;20002;-93
2024/04/30 11:48:41;;;;;;;2.88;2.38;;;;;;;15.31;76.63;100339.72;5835548;24;20029;-96
2024/04/30 11:58:38;;;;;;;1.52;1.10;;;;;;;15.26;76.33;100339.75;5885070;24;20006;-95
2024/04/30 12:01:19;;;;;;;1.75;1.30;;;;;;;15.52;75.74;100374.94;5822069;24;20002;-96
2024/04/30 12:03:51;;;;;;;6.13;5.53;;;;;;;15.31;77.51;100347.06;5828506;24;19999;-95
2024/04/30 12:06:34;;;;;;;2.38;1.45;;;;;;;15.03;78.51;100348.50;5824824;24;20413;-94
2024/04/30 12:13:04;;;;;;;;;;;;;;;;;;;;;
2024/04/30 12:18:58;;;;;;;;;;;;;;;;;;;;;
2024/04/30 12:21:25;;;;;;;1.85;1.55;;;;;;;14.74;79.04;100333.59;5918336;24;20039;-95
2024/04/30 12:24:00;;;;;;;1.52;1.40;;;;;;;14.70;79.38;100337.13;5890469;24;20110;-96
2024/04/30 12:29:01;;;;;;;3.17;2.50;;;;;;;14.55;80.15;100327.94;6361862;22;20003;-94
2024/04/30 12:31:36;;;;;;;2.33;1.73;;;;;;;14.62;80.62;100346.63;6267438;22;19998;-96
2024/04/30 12:34:23;;;;;;;;;;;;;;;;;;;;;
2024/04/30 12:58:26;;;;;;;3.10;1.90;;;;;;;14.80;80.01;100356.13;6119349;23;20041;-94
2024/04/30 13:18:22;;;;;;;3.00;2.50;;;;;;;14.70;81.13;100329.81;6370283;21;20091;-96
2024/04/30 13:21:36;;;;;;;;;;;;;;;;;;;;;
2024/04/30 13:24:49;;;;;;;3.80;2.60;;;;;;;14.39;81.91;100292.94;6106599;23;20006;-95
2024/04/30 13:27:17;;;;;;;3.17;2.63;;;;;;;14.58;81.70;100331.97;6093963;23;20066;-95
2024/04/30 13:29:54;;;;;;;2.92;2.38;;;;;;;14.44;82.13;100315.41;6110493;23;19999;-95
2024/04/30 13:33:01;;;;;;;4.32;3.40;;;;;;;14.46;81.21;100291.56;6075208;23;20142;-96
2024/04/30 13:35:29;;;;;;;3.03;2.28;;;;;;;14.59;80.67;100300.25;6079414;23;20015;-94
2024/04/30 13:37:56;;;;;;;3.45;2.40;;;;;;;14.50;80.52;100300.78;6036542;23;19998;-95
2024/04/30 13:41:16;;;;;;;;;;;;;;;;;;;;;
2024/04/30 13:44:15;;;;;;;2.95;2.28;;;;;;;14.51;81.80;100291.59;6146922;23;20080;-94
2024/04/30 13:46:56;;;;;;;3.80;2.65;;;;;;;14.63;82.03;100296.75;6180816;22;20074;-96
2024/04/30 14:05:59;;;;;;;4.72;3.00;;;;;;;14.77;81.37;100288.88;6354689;22;20019;-96
2024/04/30 14:08:31;;;;;;;4.93;3.25;;;;;;;14.55;82.36;100284.56;6313864;22;19991;-96
2024/04/30 14:11:07;;;;;;;9.25;6.18;;;;;;;14.60;83.16;100272.91;6313416;22;19999;-96
2024/04/30 14:14:02;;;;;;;10.02;5.60;;;;;;;14.73;83.43;100268.81;6310254;22;19987;-96
2024/04/30 14:16:35;;;;;;;7.97;5.43;;;;;;;14.91;83.51;100278.28;6309479;22;20007;-96
2024/04/30 14:19:00;;;;;;;7.85;4.30;;;;;;;14.94;81.57;100281.25;6271496;22;19999;-96
2024/04/30 14:21:26;;;;;;;5.18;3.30;;;;;;;14.98;79.35;100278.78;6264526;22;20426;-96
2024/04/30 14:24:21;;;;;;;4.30;2.42;;;;;;;14.83;78.21;100260.66;6268949;22;20039;-96
2024/04/30 14:29:56;;;;;;;3.80;2.50;;;;;;;14.72;78.53;100250.94;6343408;21;20027;-96
2024/04/30 14:32:25;;;;;;;5.32;3.40;;;;;;;14.85;79.10;100273.94;6203365;23;20050;-94
2024/04/30 14:35:01;;;;;;;5.75;3.25;;;;;;;14.77;77.95;100261.75;6161664;23;19994;-96
2024/04/30 14:37:50;;;;;;;4.07;2.60;;;;;;;14.75;77.83;100258.50;6168504;23;19989;-96
2024/04/30 15:28:20;;;;;;;6.22;4.70;;;;;;;14.68;81.69;100275.06;5394182;25;3193274;-96
2024/04/30 15:30:51;;;;;;;9.68;6.22;;;;;;;14.74;81.29;100282.09;5454890;26;19994;-95
2024/04/30 15:33:48;;;;;;;10.82;5.78;;;;;;;14.89;80.66;100302.94;5428276;26;20002;-95
2024/04/30 15:36:14;;;;;;;19.02;9.60;;;;;;;14.90;80.91;100296.44;5417594;26;19998;-96
2024/04/30 15:38:39;;;;;;;6.50;4.97;;;;;;;14.78;79.11;100270.72;5424010;26;20381;-96
2024/04/30 15:41:17;;;;;;;5.78;3.20;;;;;;;14.58;74.15;100271.56;5426663;26;19994;-96
2024/04/30 15:43:43;;;;;;;7.38;3.00;;;;;;;14.55;72.95;100271.00;5428624;26;19999;-96
2024/04/30 15:46:09;;;;;;;5.30;2.65;;;;;;;14.44;73.38;100263.94;5427379;26;19997;-93
2024/04/30 15:48:44;;;;;;;5.35;2.72;;;;;;;14.34;72.29;100247.72;5426387;26;19998;-96
2024/04/30 15:51:42;;;;;;;6.53;2.63;;;;;;;14.20;69.50;100244.72;5433731;26;20405;-96
2024/04/30 15:54:59;;;;;;;7.03;2.95;;;;;;;14.07;73.01;100242.53;5456049;26;19990;-96
2024/04/30 15:57:28;;;;;;;9.10;3.13;;;;;;;14.25;71.55;100289.94;5240217;27;20099;-96
2024/04/30 15:59:54;;;;;;;3.80;2.20;;;;;;;14.06;68.74;100268.00;5340410;26;19992;-95
2024/04/30 16:02:34;;;;;;;4.70;1.98;;;;;;;14.07;68.66;100262.31;5352349;26;20001;-94
2024/04/30 16:05:29;;;;;;;4.20;2.70;;;;;;;14.14;68.94;100286.44;5354528;26;20007;-95
2024/04/30 16:07:55;;;;;;;7.93;2.40;;;;;;;13.86;69.83;100266.91;5380440;26;19997;-96
2024/04/30 16:10:21;;;;;;;5.30;2.50;;;;;;;13.89;69.63;100255.53;5352001;26;20438;-96
2024/04/30 16:15:54;;;;;;;7.35;2.80;;;;;;;13.90;71.07;100254.47;5441114;26;19995;-96
2024/04/30 16:18:22;;;;;;;5.47;2.50;;;;;;;13.99;70.29;100243.09;5351576;26;20025;-96
2024/04/30 16:20:47;;;;;;;4.82;2.38;;;;;;;13.94;69.76;100254.72;5351028;26;20443;-96
2024/04/30 16:23:13;;;;;;;7.25;2.40;;;;;;;13.87;69.46;100252.28;5348911;26;19995;-94
2024/04/30 16:25:39;;;;;;;6.80;2.35;;;;;;;13.77;69.62;100244.13;5375300;26;19991;-93
2024/04/30 16:28:05;;;;;;;4.10;2.20;;;;;;;13.78;69.39;100229.53;5408369;26;20393;-96
2024/04/30 16:30:31;;;;;;;4.28;2.10;;;;;;;13.72;70.13;100236.81;5429692;26;20028;-94
2024/04/30 16:32:57;;;;;;;4.85;2.15;;;;;;;13.87;70.00;100260.41;5428702;26;19999;-92
2024/04/30 16:35:25;;;;;;;4.60;2.25;;;;;;;13.62;70.90;100241.41;5399370;26;19997;-93
2024/04/30 16:37:51;;;;;;;5.97;2.50;;;;;;;13.54;71.26;100254.38;5399048;26;20006;-94
2024/04/30 16:40:17;;;;;;;3.25;2.10;;;;;;;13.59;70.99;100250.84;5398566;26;20437;-94
2024/04/30 16:42:42;;;;;;;4.88;2.45;;;;;;;13.58;72.37;100256.56;5399452;26;20003;-94
2024/04/30 16:45:14;;;;;;;3.03;2.30;;;;;;;13.53;72.69;100238.41;5399033;26;20063;-93
2024/04/30 16:47:48;;;;;;;6.35;2.83;;;;;;;13.58;72.74;100240.31;5429499;26;19997;-93
2024/04/30 16:50:14;;;;;;;8.63;2.45;;;;;;;13.54;72.37;100231.91;5401402;26;20010;-95
2024/04/30 16:53:00;;;;;;;6.15;2.55;;;;;;;13.62;71.68;100238.69;5399334;26;19991;-96
2024/04/30 16:55:28;;;;;;;4.85;2.78;;;;;;;13.48;72.65;100222.97;5407566;26;19991;-96
2024/04/30 16:57:54;;;;;;;7.63;2.10;;;;;;;13.64;72.09;100228.41;5430639;26;19991;-96
2024/04/30 17:00:20;;;;;;;9.10;2.50;;;;;;;13.45;72.23;100209.97;5400011;26;19991;-92
2024/04/30 17:02:48;;;;;;;5.63;2.53;;;;;;;13.36;71.83;100225.09;5399146;26;20159;-93
2024/04/30 17:05:14;;;;;;;15.48;3.28;;;;;;;13.29;73.06;100214.53;5400881;26;19995;-92
2024/04/30 17:07:40;;;;;;;6.93;3.25;;;;;;;13.51;73.22;100217.03;5400030;26;19998;-93
2024/04/30 17:10:06;;;;;;;7.55;2.90;;;;;;;13.64;74.11;100231.13;5398645;26;19998;-94
2024/04/30 17:12:31;;;;;;;4.28;2.42;;;;;;;13.73;74.34;100237.63;5398666;26;20025;-92
2024/04/30 17:14:57;;;;;;;6.30;2.58;;;;;;;13.75;75.15;100238.97;5398854;26;19987;-93
2024/04/30 17:17:26;;;;;;;3.55;2.72;;;;;;;13.70;74.03;100217.34;5399272;26;20028;-93
2024/04/30 17:19:51;;;;;;;6.53;3.00;;;;;;;13.72;73.21;100222.47;5398248;26;19987;-93
2024/04/30 17:22:17;;;;;;;6.50;3.30;;;;;;;13.74;73.27;100234.66;5398395;26;20068;-93
2024/04/30 17:24:44;;;;;;;9.73;6.70;;;;;;;13.79;73.50;100230.34;5397811;26;20006;-93
2024/04/30 17:27:12;;;;;;;10.77;8.52;;;;;;;13.83;73.21;100242.25;5399176;26;20421;-92
2024/04/30 17:29:41;;;;;;;7.38;5.43;;;;;;;13.69;73.28;100231.13;5399934;26;20072;-93
2024/04/30 17:32:07;;;;;;;13.82;7.78;;;;;;;13.78;74.15;100229.53;5399038;26;20023;-93
2024/04/30 17:34:35;;;;;;;5.53;3.80;;;;;;;13.87;72.91;100244.16;5398563;26;20005;-93
2024/04/30 17:37:00;;;;;;;8.05;3.75;;;;;;;13.88;72.61;100259.31;5399671;26;20001;-94
2024/04/30 17:39:26;;;;;;;4.00;2.95;;;;;;;13.69;72.21;100234.63;5397831;26;19991;-95
2024/04/30 17:41:52;;;;;;;5.75;2.70;;;;;;;13.69;72.18;100228.41;5398955;26;20005;-94
2024/04/30 17:44:18;;;;;;;4.53;2.90;;;;;;;13.92;71.56;100271.25;5397594;26;19998;-93
2024/04/30 17:46:43;;;;;;;7.95;3.53;;;;;;;13.74;72.54;100244.69;5397240;26;20009;-93
2024/04/30 17:49:10;;;;;;;4.65;2.80;;;;;;;13.74;72.92;100244.69;5398622;26;20005;-94
2024/04/30 17:51:39;;;;;;;7.72;3.10;;;;;;;13.72;72.92;100246.84;5398073;26;19991;-93
2024/04/30 17:54:05;;;;;;;4.32;2.95;;;;;;;13.72;73.58;100265.78;5397926;26;20022;-93
2024/04/30 17:56:31;;;;;;;7.45;3.40;;;;;;;13.64;74.64;100255.50;5398273;26;20032;-93
2024/04/30 17:58:59;;;;;;;7.50;3.45;;;;;;;13.65;73.91;100249.78;5398517;26;19995;-94
2024/04/30 18:01:25;;;;;;;10.43;4.03;;;;;;;13.73;74.55;100262.00;5399757;26;20006;-93
2024/04/30 18:03:51;;;;;;;8.25;4.35;;;;;;;13.81;75.06;100282.31;5397915;26;20336;-94
2024/04/30 18:06:18;;;;;;;7.35;4.25;;;;;;;13.65;75.70;100252.50;5458190;26;20006;-93
2024/04/30 18:08:43;;;;;;;5.35;2.80;;;;;;;13.54;74.88;100251.66;5428689;26;19999;-94
2024/04/30 18:11:10;;;;;;;6.07;3.20;;;;;;;13.57;74.86;100244.09;5397446;26;20009;-94
2024/04/30 18:13:36;;;;;;;6.00;3.63;;;;;;;13.63;74.67;100253.84;5398667;26;19991;-94
2024/04/30 18:16:02;;;;;;;6.55;3.00;;;;;;;13.63;73.48;100249.25;5397602;26;20028;-94
2024/04/30 18:18:27;;;;;;;4.72;2.30;;;;;;;13.58;72.35;100229.50;5398505;26;19998;-94
2024/04/30 18:20:53;;;;;;;8.88;5.40;;;;;;;13.60;73.12;100247.09;5397925;26;19994;-95